Latest Weather Observations for Cooma Airport

IDN60801

Issued at 9:32 am EST Sunday 30 August 2015 (issued every 30 minutes, with the page automatically refreshed every 10 minutes)

About weather observations | Map of weather stations | Latest weather observations for NSW | Other Formats
Station Details ID: 070217 Name: COOMA AIRPORT AWS Lat: -36.29 Lon: 148.97 Height: 930.0 m
Data from the previous 72 hours. | See also: Recent months at Cooma Airport
Date/Time
EST
Temp
°C
App
Temp
°C
Dew
Point
Rel
Hum
%
Delta-T
°C
Wind Press
QNH
hPa
Press
MSL
hPa
Rain
since 9 am
mm
Dir
 
Spd
km/h
Gust
km/h
Spd
kts
Gust
kts
30/09:00am 4.6 -3.1 2.1 84 1.1 SW 32 41 17 22 1020.5 1021.7 0.0
30/08:30am 4.5 -2.4 2.4 86 0.9 SW 28 39 15 21 1020.3 1021.5 0.0
30/08:18am 4.5 -1.9 3.0 90 0.7 SW 26 37 14 20 1020.2 1021.4 0.0
30/08:00am 3.9 -2.0 3.8 99 0.0 SW 24 32 13 17 1020.2 1021.4 0.0
30/07:30am 3.3 -2.3 3.2 99 0.0 SW 22 28 12 15 1020.0 1021.3 0.0
30/07:12am 3.2 -2.8 3.1 99 0.0 SW 24 30 13 16 1019.8 1021.1 0.0
30/07:04am 3.2 -2.8 3.1 99 0.0 SW 24 32 13 17 1019.7 1020.9 0.0
30/07:00am 3.2 -2.8 3.1 99 0.0 SW 24 32 13 17 1019.6 1020.8 0.0
30/06:30am 3.1 -2.6 2.7 97 0.2 SW 22 32 12 17 1019.6 1020.8 0.0
30/06:00am 3.2 -2.6 2.3 94 0.4 SW 22 30 12 16 1019.2 1020.4 0.0
30/05:30am 3.2 -2.2 2.6 96 0.3 SW 20 26 11 14 1019.2 1020.4 0.0
30/05:00am 3.3 -2.5 2.3 93 0.4 SW 22 30 12 16 1019.2 1020.4 0.0
30/04:30am 3.2 -3.0 1.9 91 0.5 SW 24 33 13 18 1019.1 1020.3 0.0
30/04:00am 3.3 -3.4 1.5 88 0.7 SW 26 35 14 19 1019.1 1020.3 0.0
30/03:57am 3.4 -3.3 1.6 88 0.7 SW 26 35 14 19 1019.1 1020.3 0.0
30/03:30am 3.4 -3.7 1.3 86 0.9 SW 28 37 15 20 1019.1 1020.3 0.0
30/03:00am 3.5 -3.2 1.5 87 0.8 SW 26 33 14 18 1019.3 1020.5 0.0
30/02:30am 3.4 -2.2 1.4 87 0.8 SW 20 26 11 14 1019.7 1020.9 0.0
30/02:00am 3.4 -3.3 1.4 87 0.8 SW 26 32 14 17 1019.9 1021.2 0.0
30/01:30am 3.6 -2.3 1.5 86 0.9 SW 22 32 12 17 1020.2 1021.4 0.0
30/01:00am 3.4 -1.9 1.8 89 0.7 SW 19 24 10 13 1020.4 1021.6 0.0
30/12:30am 3.5 -1.4 2.0 90 0.6 SW 17 24 9 13 1020.5 1021.7 0.0
30/12:00am 3.5 -2.4 2.0 90 0.6 SW 22 30 12 16 1020.5 1021.7 0.0
 
Date/Time
EST
Temp
°C
App
Temp
°C
Dew
Point
Rel
Hum
%
Delta-T
°C
Wind Press
QNH
hPa
Press
MSL
hPa
Rain
since 9 am
mm
Dir
 
Spd
km/h
Gust
km/h
Spd
kts
Gust
kts
29/11:30pm 3.5 -2.7 2.2 91 0.5 SW 24 30 13 16 1020.3 1021.5 0.0
29/11:00pm 2.5 -2.8 1.6 94 0.4 SW 19 24 10 13 1020.4 1021.6 0.0
29/10:30pm 3.3 -2.3 1.5 88 0.7 SW 20 26 11 14 1020.3 1021.5 0.0
29/10:00pm 3.5 -1.9 1.2 85 0.9 SW 19 26 10 14 1020.2 1021.4 0.0
29/09:30pm 3.9 -2.1 0.9 81 1.2 SW 22 30 12 16 1019.8 1021.1 0.0
29/09:00pm 2.7 -3.0 0.8 87 0.8 SW 20 22 11 12 1020.0 1021.3 0.0
29/08:30pm 2.2 -3.4 -0.1 85 0.9 WSW 19 20 10 11 1020.0 1021.3 0.0
29/08:00pm 2.6 -3.9 0.3 85 0.9 SW 24 28 13 15 1019.9 1021.2 0.0
29/07:30pm 3.2 -2.5 0.8 84 1.0 SW 20 24 11 13 1019.8 1021.1 0.0
29/07:00pm 1.5 -3.8 -0.6 86 0.8 SW 17 19 9 10 1019.8 1021.1 0.0
29/06:30pm 2.2 -2.7 -0.2 84 0.9 SW 15 17 8 9 1019.7 1020.9 0.0
29/06:00pm 3.4 -1.0 0.3 80 1.2 SSW 13 15 7 8 1019.5 1020.7 0.0
29/05:30pm 5.3 -0.4 0.5 71 2.0 SSW 20 26 11 14 1019.4 1020.6 0.0
29/05:00pm 6.0 -0.6 -0.1 65 2.5 SSW 24 32 13 17 1018.8 1020.1 0.0
29/04:30pm 7.2 -0.8 0.2 61 2.9 SSW 32 41 17 22 1018.5 1019.7 0.0
29/04:00pm 7.9 -0.3 0.4 59 3.2 SSW 33 43 18 23 1018.2 1019.4 0.0
29/03:30pm 8.2 0.9 0.0 56 3.4 SSW 28 35 15 19 1018.2 1019.4 0.0
29/03:00pm 7.9 0.1 -1.1 53 3.7 SSW 30 41 16 22 1018.1 1019.3 0.0
29/02:30pm 8.5 1.5 -0.3 54 3.7 SW 26 37 14 20 1018.1 1019.3 0.0
29/02:00pm 9.1 1.0 -0.5 51 4.0 SW 32 43 17 23 1018.2 1019.4 0.0
29/01:30pm 8.8 0.5 -1.6 48 4.2 SW 32 44 17 24 1018.1 1019.3 0.0
29/01:00pm 8.9 1.0 -1.5 48 4.2 SSW 30 43 16 23 1018.3 1019.5 0.0
29/12:30pm 8.9 2.8 -2.4 45 4.5 SW 20 33 11 18 1018.7 1019.9 0.0
29/12:00pm 8.4 2.9 -2.0 48 4.2 SW 17 26 9 14 1019.2 1020.4 0.0
29/11:30am 7.7 1.8 -2.0 50 3.9 SW 19 28 10 15 1019.4 1020.6 0.0
29/11:00am 7.6 1.5 -2.4 49 3.9 SW 20 28 11 15 1019.8 1021.1 0.0
29/10:30am 7.3 0.4 -2.4 50 3.8 WSW 24 35 13 19 1020.0 1021.3 0.0
29/10:00am 6.8 0.9 -0.9 58 3.1 W 20 28 11 15 1020.0 1021.3 0.0
29/09:30am 5.9 0.9 1.6 74 1.8 W 17 24 9 13 1020.2 1021.4 0.0
29/09:00am 4.2 0.3 1.2 81 1.2 NW 11 17 6 9 1020.5 1021.7 1.0
29/08:33am 3.0 -0.5 1.5 90 0.6 WSW 9 15 5 8 1020.7 1022.0 -
29/08:30am 3.0 -0.8 1.7 91 0.5 SW 11 17 6 9 1020.6 1021.8 -
29/08:00am 2.3 -2.4 1.1 92 0.5 SSW 15 20 8 11 1020.9 1022.2 -
29/07:30am 2.1 -2.8 2.0 99 0.0 S 17 20 9 11 1020.6 1021.8 -
29/07:00am 1.9 -3.4 1.8 99 0.0 S 19 24 10 13 1020.3 1021.5 -
29/06:30am 2.7 -0.6 2.6 99 0.0 SW 9 13 5 7 1020.0 1021.3 -
29/06:00am 2.6 -1.1 2.5 99 0.0 SSW 11 17 6 9 1019.8 1021.1 -
29/05:30am 2.8 -0.8 2.7 99 0.0 S 11 15 6 8 1019.8 1021.1 -
29/05:00am 2.9 -0.3 2.8 99 0.0 S 9 13 5 7 1019.8 1021.1 -
29/04:59am 3.0 -0.2 2.9 99 0.0 S 9 13 5 7 1019.7 1020.9 -
29/04:30am 2.9 1.4 2.8 99 0.0 CALM 0 0 0 0 1019.8 1021.1 -
29/04:27am 3.0 1.5 2.9 99 0.0 CALM 0 0 0 0 1019.8 1021.1 -
29/04:00am 3.0 0.2 2.9 99 0.0 SSE 7 13 4 7 1019.8 1021.1 -
29/03:30am 3.1 1.6 3.0 99 0.0 CALM 0 0 0 0 1019.9 1021.2 -
29/03:00am 3.3 0.1 3.2 99 0.0 SW 9 11 5 6 1020.3 1021.5 0.4
29/02:30am 3.3 0.7 3.2 99 0.0 SW 6 7 3 4 1020.6 1021.8 -
29/02:00am 3.4 -0.1 3.3 99 0.0 S 11 13 6 7 1020.7 1022.0 -
29/01:30am 3.6 -0.3 3.5 99 0.0 S 13 15 7 8 1021.1 1022.4 -
29/01:00am 3.8 1.1 3.7 99 0.0 SW 7 11 4 6 1021.3 1022.5 -
29/12:30am 3.7 1.0 3.6 99 0.0 SSW 7 11 4 6 1021.3 1022.5 -
29/12:00am 3.8 0.3 3.7 99 0.0 SSW 11 15 6 8 1021.4 1022.6 -
 
Date/Time
EST
Temp
°C
App
Temp
°C
Dew
Point
Rel
Hum
%
Delta-T
°C
Wind Press
QNH
hPa
Press
MSL
hPa
Rain
since 9 am
mm
Dir
 
Spd
km/h
Gust
km/h
Spd
kts
Gust
kts
28/11:30pm 4.0 -0.2 3.9 99 0.0 SSW 15 19 8 10 1021.5 1022.7 -
28/11:00pm 4.2 0.4 4.1 99 0.0 SW 13 17 7 9 1021.7 1023.0 -
28/10:30pm 4.3 0.9 4.2 99 0.0 SW 11 13 6 7 1021.8 1023.1 -
28/10:00pm 4.3 0.9 4.2 99 0.0 SW 11 15 6 8 1022.0 1023.3 -
28/09:39pm 3.6 2.2 3.5 99 0.0 CALM 0 0 0 0 1022.0 1023.3 -
28/09:30pm 3.4 2.0 3.3 99 0.0 CALM 0 0 0 0 1022.0 1023.3 -
28/09:25pm 3.4 2.0 3.3 99 0.0 CALM 0 0 0 0 1022.0 1023.3 -
28/09:14pm 3.2 1.7 3.1 99 0.0 CALM 0 0 0 0 1022.0 1023.3 -
28/09:12pm 3.2 1.7 3.1 99 0.0 CALM 0 0 0 0 1022.0 1023.3 -
28/09:00pm 3.0 1.5 2.9 99 0.0 CALM 0 0 0 0 1022.0 1023.3 -
28/08:59pm 3.0 1.5 2.9 99 0.0 CALM 0 0 0 0 1022.0 1023.3 -
28/08:30pm 1.8 0.1 1.7 99 0.0 CALM 0 0 0 0 1021.8 1023.1 -
28/08:00pm 2.6 -0.3 2.5 99 0.0 WNW 7 7 4 4 1021.5 1022.7 -
28/07:30pm 3.3 -0.3 3.2 99 0.0 WSW 11 13 6 7 1021.4 1022.6 -
28/07:00pm 4.5 1.2 4.4 99 0.0 SSW 11 13 6 7 1021.3 1022.5 -
28/06:45pm 4.8 1.9 4.4 97 0.2 SSW 9 13 5 7 1021.4 1022.6 -
28/06:30pm 5.3 2.0 4.7 96 0.3 SSW 11 13 6 7 1021.4 1022.6 -
28/06:16pm 5.5 2.3 4.9 96 0.3 WSW 11 13 6 7 1021.4 1022.6 -
28/06:00pm 5.8 1.7 4.4 91 0.6 SW 15 19 8 10 1021.3 1022.5 -
28/05:30pm 6.1 1.2 3.9 86 1.0 SSW 19 26 10 14 1020.7 1022.0 -
28/05:00pm 6.7 1.1 3.7 81 1.3 SSW 22 30 12 16 1020.2 1021.4 0.0
28/04:30pm 7.2 2.0 3.8 79 1.5 S 20 28 11 15 1019.9 1021.2 0.0
28/04:00pm 7.5 1.2 3.9 78 1.6 S 26 35 14 19 1019.9 1021.2 0.0
28/03:30pm 7.9 1.2 3.8 75 1.9 SSW 28 35 15 19 1019.6 1020.8 0.0
28/03:00pm 8.6 2.9 4.8 77 1.8 S 24 32 13 17 1019.6 1020.8 0.0
28/02:30pm 8.5 2.5 3.6 71 2.2 S 24 37 13 20 1019.6 1020.8 0.0
28/02:00pm 9.0 1.7 4.4 73 2.1 S 32 41 17 22 1019.5 1020.7 0.0
28/01:30pm 7.8 2.1 4.9 82 1.4 SSW 24 33 13 18 1020.0 1021.3 0.0
28/01:00pm 7.5 1.3 4.3 80 1.5 SSW 26 33 14 18 1019.9 1021.2 0.0
28/12:30pm 7.4 0.1 4.5 82 1.3 SW 32 39 17 21 1020.2 1021.4 0.0
28/12:00pm 7.7 0.5 4.8 82 1.3 SW 32 41 17 22 1020.4 1021.6 0.0
28/11:30am 7.5 -0.7 4.6 82 1.3 SW 37 46 20 25 1020.4 1021.6 0.0
28/11:08am 7.5 0.1 5.1 85 1.1 SW 33 43 18 23 1020.4 1021.6 0.0
28/11:00am 7.2 0.1 5.3 88 0.9 SW 32 39 17 21 1020.5 1021.7 0.0
28/10:30am 7.7 0.6 6.6 93 0.5 SW 33 43 18 23 1020.4 1021.6 0.0
28/10:00am 7.0 -1.0 5.8 92 0.6 SW 37 46 20 25 1019.9 1021.2 0.0
28/09:30am 6.3 -0.9 5.7 96 0.3 SW 33 43 18 23 1019.8 1021.1 0.0
28/09:00am 6.0 -1.2 5.7 98 0.1 SW 33 44 18 24 1019.6 1020.8 8.6
28/08:30am 5.8 -0.9 5.7 99 0.0 SW 30 37 16 20 1019.5 1020.7 8.6
28/08:22am 5.7 -1.6 5.6 99 0.0 SW 33 46 18 25 1019.2 1020.4 8.6
28/08:00am 5.4 -1.9 5.3 99 0.0 SW 33 46 18 25 1019.0 1020.2 8.6
28/07:59am 5.4 -1.9 5.3 99 0.0 SW 33 46 18 25 1018.8 1020.1 8.6
28/07:30am 5.3 -2.1 5.2 99 0.0 SW 33 43 18 23 1018.7 1019.9 8.6
28/07:00am 5.1 -1.7 5.0 99 0.0 SW 30 41 16 22 1018.3 1019.5 8.6
28/06:30am 5.2 -2.0 5.1 99 0.0 SW 32 39 17 21 1018.0 1019.2 8.6
28/06:00am 5.0 -1.1 4.9 99 0.0 SW 26 33 14 18 1017.5 1018.7 8.4
28/05:30am 4.8 -0.2 4.7 99 0.0 WSW 20 28 11 15 1017.3 1018.5 8.4
28/05:00am 4.9 -0.4 4.8 99 0.0 WSW 22 26 12 14 1016.9 1018.0 7.8
28/04:35am 4.8 -0.2 4.7 99 0.0 WSW 20 26 11 14 1016.8 1017.9 7.0
28/04:30am 4.8 0.0 4.7 99 0.0 WSW 19 26 10 14 1016.8 1017.9 7.0
28/04:00am 4.6 0.5 4.5 99 0.0 WSW 15 20 8 11 1016.7 1017.8 6.0
28/03:38am 4.7 0.3 4.6 99 0.0 WSW 17 20 9 11 1016.4 1017.6 5.4
28/03:30am 4.8 0.8 4.7 99 0.0 SW 15 19 8 10 1016.5 1017.7 5.2
28/03:00am 4.9 0.5 4.8 99 0.0 SW 17 20 9 11 1016.5 1017.7 4.4
28/02:54am 4.9 0.9 4.8 99 0.0 SW 15 19 8 10 1016.5 1017.7 4.2
28/02:30am 5.0 1.4 4.9 99 0.0 SW 13 17 7 9 1016.8 1017.9 3.4
28/02:12am 5.1 1.5 5.0 99 0.0 SW 13 17 7 9 1016.9 1018.0 3.0
28/02:06am 5.0 1.4 4.9 99 0.0 SW 13 17 7 9 1016.8 1017.9 2.8
28/02:00am 5.0 1.4 4.9 99 0.0 SW 13 17 7 9 1016.8 1017.9 2.8
28/01:30am 4.9 0.9 4.8 99 0.0 SW 15 19 8 10 1016.8 1017.9 2.8
28/01:00am 4.9 0.9 4.8 99 0.0 SW 15 20 8 11 1017.0 1018.1 2.8
28/12:58am 5.0 0.6 4.9 99 0.0 SW 17 20 9 11 1017.0 1018.1 2.8
28/12:30am 5.4 1.1 5.3 99 0.0 SW 17 20 9 11 1017.1 1018.3 2.8
28/12:07am 5.2 0.9 5.1 99 0.0 SW 17 20 9 11 1017.0 1018.1 2.8
28/12:00am 5.3 1.0 5.2 99 0.0 SW 17 20 9 11 1017.0 1018.1 2.8
 
Date/Time
EST
Temp
°C
App
Temp
°C
Dew
Point
Rel
Hum
%
Delta-T
°C
Wind Press
QNH
hPa
Press
MSL
hPa
Rain
since 9 am
mm
Dir
 
Spd
km/h
Gust
km/h
Spd
kts
Gust
kts
27/11:30pm 5.3 1.0 5.2 99 0.0 SW 17 22 9 12 1017.2 1018.4 2.8
27/11:00pm 5.3 0.0 5.2 99 0.0 SSW 22 30 12 16 1017.2 1018.4 2.8
27/10:30pm 5.6 0.8 5.5 99 0.0 SSW 20 28 11 15 1017.2 1018.4 2.8
27/10:00pm 5.9 2.1 5.8 99 0.0 SW 15 20 8 11 1017.3 1018.5 2.8
27/09:52pm 5.9 1.7 5.8 99 0.0 SW 17 20 9 11 1017.3 1018.5 2.8
27/09:30pm 5.7 1.9 5.6 99 0.0 SSW 15 19 8 10 1017.3 1018.5 2.8
27/09:06pm 6.0 0.8 5.6 97 0.2 SSW 22 28 12 15 1017.3 1018.5 2.8
27/09:00pm 6.1 0.5 5.5 96 0.3 SSW 24 30 13 16 1017.3 1018.5 2.8
27/08:30pm 7.0 3.1 6.9 99 0.0 SSW 17 24 9 13 1016.9 1018.0 2.8
27/08:00pm 6.6 3.6 6.2 97 0.2 SW 11 13 6 7 1016.7 1017.8 2.8
27/07:41pm 6.9 4.0 6.3 96 0.3 WSW 11 15 6 8 1016.7 1017.8 2.8
27/07:30pm 6.9 3.5 5.8 93 0.5 SW 13 17 7 9 1016.7 1017.8 2.8
27/07:00pm 7.8 4.6 6.7 93 0.5 SSW 13 17 7 9 1016.7 1017.8 2.8
27/06:30pm 8.1 4.1 6.6 90 0.7 SSW 17 22 9 12 1016.0 1017.1 2.8
27/06:00pm 7.9 5.1 6.8 93 0.5 SSW 11 17 6 9 1015.8 1016.9 2.8
27/05:30pm 8.1 3.5 6.4 89 0.8 S 20 30 11 16 1015.2 1016.4 2.8
27/05:00pm 8.3 2.2 6.4 88 0.9 SSW 28 35 15 19 1015.1 1016.2 2.8
27/04:30pm 10.9 5.8 4.1 63 3.2 WSW 20 26 11 14 1014.6 1015.7 2.8
27/04:00pm 11.5 5.4 4.9 64 3.2 W 26 33 14 18 1014.5 1015.6 2.8
27/03:30pm 12.9 8.7 5.8 62 3.5 WNW 17 24 9 13 1014.6 1015.7 2.8
27/03:00pm 11.8 8.6 6.9 72 2.5 SW 13 20 7 11 1014.5 1015.6 2.8
27/02:30pm 12.5 7.5 6.5 67 3.0 WSW 22 33 12 18 1014.6 1015.7 2.8
27/02:00pm 11.0 9.3 7.7 80 1.7 WSW 6 13 3 7 1015.0 1016.1 2.8
27/01:47pm 10.7 8.8 7.4 80 1.7 SSW 7 15 4 8 1015.1 1016.2 2.8
27/01:30pm 10.6 8.8 7.8 83 1.4 S 7 15 4 8 1015.3 1016.5 2.8
27/01:16pm 10.2 7.9 7.6 84 1.3 S 9 15 5 8 1015.5 1016.6 2.8
27/01:12pm 10.6 8.4 9.2 91 0.7 SSE 11 15 6 8 1015.6 1016.7 2.8
27/01:00pm 10.2 7.9 9.1 93 0.6 SSW 11 15 6 8 1015.8 1016.9 2.8
27/12:30pm 9.3 7.4 9.2 99 0.1 S 9 15 5 8 1016.4 1017.6 2.8
27/12:00pm 8.9 7.3 8.8 99 0.1 S 7 13 4 7 1017.0 1018.1 2.8
27/11:57am 9.2 7.9 9.1 99 0.1 SSW 6 13 3 7 1017.0 1018.1 2.8
27/11:30am 8.6 6.2 8.5 99 0.1 SSW 11 15 6 8 1017.3 1018.5 2.8
27/11:00am 7.7 5.8 7.6 99 0.0 SSW 7 9 4 5 1018.1 1019.3 2.4
27/10:30am 7.6 5.3 7.5 99 0.0 SSW 9 11 5 6 1018.3 1019.5 2.4
27/10:27am 7.8 5.6 7.7 99 0.0 SSW 9 11 5 6 1018.3 1019.5 2.4
27/10:20am 7.6 5.7 7.6 100 0.0 SSW 7 11 4 6 1018.4 1019.6 2.2
27/10:00am 7.3 5.3 7.3 100 0.0 SSW 7 9 4 5 1018.6 1019.8 2.0
27/09:59am 7.4 5.5 7.4 100 0.0 SSW 7 9 4 5 1018.6 1019.8 2.0
27/09:48am 7.4 5.5 7.4 100 0.0 SSW 7 11 4 6 1018.8 1020.1 2.0

Other Formats:

Comma delimited format used in spreadsheet applications
http://www.bom.gov.au/fwo/IDN60801/IDN60801.94921.axf

JavaScript Object Notation format (JSON) in row-major order
http://www.bom.gov.au/fwo/IDN60801/IDN60801.94921.json